sensor_id;sensor_type;location;lat;lon;timestamp;pressure;altitude;pressure_sealevel;temperature;humidity
46690;BME280;32423;45.398;10.874;2022-11-20T00:01:59;100030.66;;;11.07;55.51
46690;BME280;32423;45.398;10.874;2022-11-20T00:04:44;100033.84;;;11.09;55.50
46690;BME280;32423;45.398;10.874;2022-11-20T00:07:29;100038.81;;;11.07;55.38
46690;BME280;32423;45.398;10.874;2022-11-20T00:10:13;100037.09;;;11.03;55.95
46690;BME280;32423;45.398;10.874;2022-11-20T00:12:58;100039.97;;;11.06;55.17
46690;BME280;32423;45.398;10.874;2022-11-20T00:15:42;100042.47;;;11.11;55.03
46690;BME280;32423;45.398;10.874;2022-11-20T00:18:27;100040.88;;;11.10;55.16
46690;BME280;32423;45.398;10.874;2022-11-20T00:21:15;100038.81;;;11.07;55.17
46690;BME280;32423;45.398;10.874;2022-11-20T00:24:00;100041.53;;;11.07;55.29
46690;BME280;32423;45.398;10.874;2022-11-20T00:26:45;100047.63;;;11.25;55.67
46690;BME280;32423;45.398;10.874;2022-11-20T00:29:29;100050.22;;;11.22;55.84
46690;BME280;32423;45.398;10.874;2022-11-20T00:32:13;100061.34;;;11.29;55.66
46690;BME280;32423;45.398;10.874;2022-11-20T00:34:58;100065.19;;;11.28;55.50
46690;BME280;32423;45.398;10.874;2022-11-20T00:37:42;100060.75;;;11.23;55.64
46690;BME280;32423;45.398;10.874;2022-11-20T00:40:26;100066.78;;;11.29;55.77
46690;BME280;32423;45.398;10.874;2022-11-20T00:43:11;100062.88;;;11.18;55.69
46690;BME280;32423;45.398;10.874;2022-11-20T00:45:58;100068.31;;;11.18;55.82
46690;BME280;32423;45.398;10.874;2022-11-20T00:48:43;100069.75;;;11.03;55.82
46690;BME280;32423;45.398;10.874;2022-11-20T00:51:28;100080.59;;;10.91;56.28
46690;BME280;32423;45.398;10.874;2022-11-20T00:54:12;100072.34;;;10.99;56.31
46690;BME280;32423;45.398;10.874;2022-11-20T00:56:57;100077.91;;;11.03;55.58
46690;BME280;32423;45.398;10.874;2022-11-20T00:59:41;100071.31;;;10.92;55.47
46690;BME280;32423;45.398;10.874;2022-11-20T01:02:26;100072.22;;;10.96;55.50
46690;BME280;32423;45.398;10.874;2022-11-20T01:05:10;100069.41;;;11.04;55.09
46690;BME280;32423;45.398;10.874;2022-11-20T01:07:54;100066.63;;;10.92;54.89
46690;BME280;32423;45.398;10.874;2022-11-20T01:10:39;100064.41;;;10.73;55.24
46690;BME280;32423;45.398;10.874;2022-11-20T01:13:23;100070.94;;;10.72;55.44
46690;BME280;32423;45.398;10.874;2022-11-20T01:16:31;100066.44;;;10.97;54.86
46690;BME280;32423;45.398;10.874;2022-11-20T01:19:18;100067.59;;;10.96;54.88
46690;BME280;32423;45.398;10.874;2022-11-20T01:22:03;100064.78;;;10.84;54.87
46690;BME280;32423;45.398;10.874;2022-11-20T01:24:47;100074.16;;;10.95;55.38
46690;BME280;32423;45.398;10.874;2022-11-20T01:27:32;100070.75;;;10.78;54.44
46690;BME280;32423;45.398;10.874;2022-11-20T01:30:16;100072.88;;;10.72;54.20
46690;BME280;32423;45.398;10.874;2022-11-20T01:33:01;100068.13;;;10.69;54.43
46690;BME280;32423;45.398;10.874;2022-11-20T01:35:45;100069.72;;;10.70;54.34
46690;BME280;32423;45.398;10.874;2022-11-20T01:38:30;100069.38;;;10.71;55.05
46690;BME280;32423;45.398;10.874;2022-11-20T01:41:15;100077.47;;;10.80;54.94
46690;BME280;32423;45.398;10.874;2022-11-20T01:44:19;100083.09;;;10.75;55.69
46690;BME280;32423;45.398;10.874;2022-11-20T01:47:04;100083.75;;;10.72;55.26
46690;BME280;32423;45.398;10.874;2022-11-20T01:49:54;100086.44;;;10.81;55.01
46690;BME280;32423;45.398;10.874;2022-11-20T01:52:42;100084.84;;;10.80;54.52
46690;BME280;32423;45.398;10.874;2022-11-20T01:55:30;100089.38;;;10.67;55.88
46690;BME280;32423;45.398;10.874;2022-11-20T01:58:16;100075.53;;;10.60;54.49
46690;BME280;32423;45.398;10.874;2022-11-20T02:01:03;100081.44;;;10.62;54.76
46690;BME280;32423;45.398;10.874;2022-11-20T02:03:49;100081.91;;;10.64;54.32
46690;BME280;32423;45.398;10.874;2022-11-20T02:06:55;100080.72;;;10.73;53.79
46690;BME280;32423;45.398;10.874;2022-11-20T02:09:42;100076.66;;;10.59;53.82
46690;BME280;32423;45.398;10.874;2022-11-20T02:12:26;100080.06;;;10.56;53.99
46690;BME280;32423;45.398;10.874;2022-11-20T02:15:30;100079.97;;;10.44;53.87
46690;BME280;32423;45.398;10.874;2022-11-20T02:18:17;100076.25;;;10.48;54.11
46690;BME280;32423;45.398;10.874;2022-11-20T02:21:07;100064.78;;;10.63;53.85
46690;BME280;32423;45.398;10.874;2022-11-20T02:26:39;100065.72;;;10.67;53.29
46690;BME280;32423;45.398;10.874;2022-11-20T02:29:37;100070.81;;;10.48;53.67
46690;BME280;32423;45.398;10.874;2022-11-20T02:32:25;100068.41;;;10.47;54.06
46690;BME280;32423;45.398;10.874;2022-11-20T02:38:15;100072.75;;;10.18;54.42
46690;BME280;32423;45.398;10.874;2022-11-20T02:40:59;100076.19;;;10.36;54.85
46690;BME280;32423;45.398;10.874;2022-11-20T02:43:44;100071.16;;;10.17;54.57
46690;BME280;32423;45.398;10.874;2022-11-20T02:46:29;100072.25;;;10.25;54.81
46690;BME280;32423;45.398;10.874;2022-11-20T02:49:13;100079.16;;;10.43;54.64
46690;BME280;32423;45.398;10.874;2022-11-20T02:51:58;100078.91;;;9.98;55.97
46690;BME280;32423;45.398;10.874;2022-11-20T02:54:43;100065.38;;;9.90;56.37
46690;BME280;32423;45.398;10.874;2022-11-20T02:57:27;100061.22;;;10.21;56.32
46690;BME280;32423;45.398;10.874;2022-11-20T03:00:12;100065.34;;;10.27;55.81
46690;BME280;32423;45.398;10.874;2022-11-20T03:02:57;100060.56;;;9.95;56.27
46690;BME280;32423;45.398;10.874;2022-11-20T03:05:41;100067.75;;;9.91;56.56
46690;BME280;32423;45.398;10.874;2022-11-20T03:08:26;100073.78;;;9.97;55.82
46690;BME280;32423;45.398;10.874;2022-11-20T03:11:10;100073.41;;;9.77;56.69
46690;BME280;32423;45.398;10.874;2022-11-20T03:13:55;100072.59;;;10.15;56.21
46690;BME280;32423;45.398;10.874;2022-11-20T03:16:40;100070.53;;;10.20;56.32
46690;BME280;32423;45.398;10.874;2022-11-20T03:19:24;100072.31;;;9.70;57.68
46690;BME280;32423;45.398;10.874;2022-11-20T03:22:09;100076.84;;;9.40;58.40
46690;BME280;32423;45.398;10.874;2022-11-20T03:24:53;100071.00;;;9.29;59.14
46690;BME280;32423;45.398;10.874;2022-11-20T03:27:38;100072.91;;;9.20;59.71
46690;BME280;32423;45.398;10.874;2022-11-20T03:30:23;100080.56;;;9.10;59.96
46690;BME280;32423;45.398;10.874;2022-11-20T03:33:07;100086.88;;;9.57;58.82
46690;BME280;32423;45.398;10.874;2022-11-20T03:35:52;100084.00;;;10.00;57.86
46690;BME280;32423;45.398;10.874;2022-11-20T03:38:37;100079.09;;;9.93;57.16
46690;BME280;32423;45.398;10.874;2022-11-20T03:41:28;100086.19;;;9.77;56.81
46690;BME280;32423;45.398;10.874;2022-11-20T03:44:13;100094.41;;;9.42;56.59
46690;BME280;32423;45.398;10.874;2022-11-20T03:46:58;100096.81;;;9.35;57.47
46690;BME280;32423;45.398;10.874;2022-11-20T03:49:42;100096.66;;;9.40;57.88
46690;BME280;32423;45.398;10.874;2022-11-20T03:52:27;100093.25;;;9.61;57.73
46690;BME280;32423;45.398;10.874;2022-11-20T03:55:11;100096.28;;;9.68;57.59
46690;BME280;32423;45.398;10.874;2022-11-20T03:57:56;100101.03;;;9.79;56.88
46690;BME280;32423;45.398;10.874;2022-11-20T04:00:40;100105.84;;;9.65;57.14
46690;BME280;32423;45.398;10.874;2022-11-20T04:03:25;100107.00;;;9.56;57.41
46690;BME280;32423;45.398;10.874;2022-11-20T04:06:11;100115.00;;;9.43;56.84
46690;BME280;32423;45.398;10.874;2022-11-20T04:08:56;100114.88;;;9.23;57.11
46690;BME280;32423;45.398;10.874;2022-11-20T04:11:41;100119.34;;;9.19;57.64
46690;BME280;32423;45.398;10.874;2022-11-20T04:14:25;100125.25;;;9.29;57.41
46690;BME280;32423;45.398;10.874;2022-11-20T04:17:10;100114.41;;;9.29;57.00
46690;BME280;32423;45.398;10.874;2022-11-20T04:19:57;100116.59;;;9.36;56.96
46690;BME280;32423;45.398;10.874;2022-11-20T04:22:42;100114.88;;;9.23;57.06
46690;BME280;32423;45.398;10.874;2022-11-20T04:25:27;100120.31;;;9.06;57.32
46690;BME280;32423;45.398;10.874;2022-11-20T04:28:11;100120.16;;;9.02;57.37
46690;BME280;32423;45.398;10.874;2022-11-20T04:31:01;100118.22;;;9.11;57.82
46690;BME280;32423;45.398;10.874;2022-11-20T04:33:46;100113.94;;;9.19;58.06
46690;BME280;32423;45.398;10.874;2022-11-20T04:36:31;100126.03;;;9.21;58.27
46690;BME280;32423;45.398;10.874;2022-11-20T04:39:15;100119.69;;;9.09;58.44
46690;BME280;32423;45.398;10.874;2022-11-20T04:42:01;100126.19;;;9.16;57.66
46690;BME280;32423;45.398;10.874;2022-11-20T04:45:04;100123.66;;;9.11;58.13
46690;BME280;32423;45.398;10.874;2022-11-20T04:47:49;100127.00;;;8.91;58.57
46690;BME280;32423;45.398;10.874;2022-11-20T04:50:34;100133.06;;;8.88;58.41
46690;BME280;32423;45.398;10.874;2022-11-20T04:53:18;100124.13;;;9.05;58.00
46690;BME280;32423;45.398;10.874;2022-11-20T04:56:04;100128.13;;;9.07;57.80
46690;BME280;32423;45.398;10.874;2022-11-20T04:58:49;100133.72;;;9.02;57.79
46690;BME280;32423;45.398;10.874;2022-11-20T05:01:34;100136.69;;;8.57;59.22
46690;BME280;32423;45.398;10.874;2022-11-20T05:04:18;100131.59;;;8.65;59.06
46690;BME280;32423;45.398;10.874;2022-11-20T05:07:03;100130.66;;;8.95;58.48
46690;BME280;32423;45.398;10.874;2022-11-20T05:09:47;100129.72;;;8.91;58.73
46690;BME280;32423;45.398;10.874;2022-11-20T05:12:32;100131.78;;;8.85;58.24
46690;BME280;32423;45.398;10.874;2022-11-20T05:15:16;100138.13;;;8.64;59.73
46690;BME280;32423;45.398;10.874;2022-11-20T05:18:01;100145.66;;;8.84;59.23
46690;BME280;32423;45.398;10.874;2022-11-20T05:20:45;100133.69;;;8.76;59.31
46690;BME280;32423;45.398;10.874;2022-11-20T05:23:30;100146.75;;;8.66;59.24
46690;BME280;32423;45.398;10.874;2022-11-20T05:26:16;100142.41;;;8.47;59.93
46690;BME280;32423;45.398;10.874;2022-11-20T05:29:01;100152.75;;;8.54;59.54
46690;BME280;32423;45.398;10.874;2022-11-20T05:31:46;100155.09;;;8.38;60.06
46690;BME280;32423;45.398;10.874;2022-11-20T05:34:31;100161.75;;;8.63;58.26
46690;BME280;32423;45.398;10.874;2022-11-20T05:37:15;100166.75;;;8.39;58.63
46690;BME280;32423;45.398;10.874;2022-11-20T05:40:00;100173.47;;;8.41;58.67
46690;BME280;32423;45.398;10.874;2022-11-20T05:42:44;100173.56;;;8.28;58.93
46690;BME280;32423;45.398;10.874;2022-11-20T05:45:28;100181.25;;;8.34;58.46
46690;BME280;32423;45.398;10.874;2022-11-20T05:48:13;100176.34;;;8.45;58.31
46690;BME280;32423;45.398;10.874;2022-11-20T05:51:01;100184.91;;;8.38;58.60
46690;BME280;32423;45.398;10.874;2022-11-20T05:53:46;100185.56;;;8.44;58.10
46690;BME280;32423;45.398;10.874;2022-11-20T05:56:30;100183.53;;;8.49;57.47
46690;BME280;32423;45.398;10.874;2022-11-20T05:59:15;100184.47;;;8.45;57.48
46690;BME280;32423;45.398;10.874;2022-11-20T06:01:59;100184.53;;;8.62;56.67
46690;BME280;32423;45.398;10.874;2022-11-20T06:04:44;100184.97;;;8.47;56.80
46690;BME280;32423;45.398;10.874;2022-11-20T06:07:28;100196.47;;;8.22;56.61
46690;BME280;32423;45.398;10.874;2022-11-20T06:10:12;100190.47;;;8.02;57.07
46690;BME280;32423;45.398;10.874;2022-11-20T06:12:57;100199.50;;;7.98;57.48
46690;BME280;32423;45.398;10.874;2022-11-20T06:15:41;100197.44;;;7.95;58.22
46690;BME280;32423;45.398;10.874;2022-11-20T06:18:26;100191.13;;;8.08;57.89
46690;BME280;32423;45.398;10.874;2022-11-20T06:21:13;100192.06;;;8.03;58.13
46690;BME280;32423;45.398;10.874;2022-11-20T06:23:58;100202.47;;;7.88;58.60
46690;BME280;32423;45.398;10.874;2022-11-20T06:26:43;100217.72;;;8.06;58.16
46690;BME280;32423;45.398;10.874;2022-11-20T06:29:27;100216.63;;;8.07;57.48
46690;BME280;32423;45.398;10.874;2022-11-20T06:32:13;100215.56;;;8.16;57.17
46690;BME280;32423;45.398;10.874;2022-11-20T06:34:57;100225.72;;;8.11;57.86
46690;BME280;32423;45.398;10.874;2022-11-20T06:37:42;100234.56;;;8.03;57.60
46690;BME280;32423;45.398;10.874;2022-11-20T06:40:26;100235.84;;;7.97;57.68
46690;BME280;32423;45.398;10.874;2022-11-20T06:43:10;100241.81;;;8.07;57.51
46690;BME280;32423;45.398;10.874;2022-11-20T06:45:55;100239.16;;;7.94;57.21
46690;BME280;32423;45.398;10.874;2022-11-20T06:48:40;100242.59;;;7.86;57.13
46690;BME280;32423;45.398;10.874;2022-11-20T06:51:24;100239.84;;;7.77;57.52
46690;BME280;32423;45.398;10.874;2022-11-20T06:54:09;100242.63;;;8.16;57.16
46690;BME280;32423;45.398;10.874;2022-11-20T06:56:53;100250.56;;;8.13;57.29
46690;BME280;32423;45.398;10.874;2022-11-20T06:59:38;100255.59;;;8.28;56.63
46690;BME280;32423;45.398;10.874;2022-11-20T07:02:22;100261.53;;;8.08;56.60
46690;BME280;32423;45.398;10.874;2022-11-20T07:05:06;100269.50;;;7.82;58.09
46690;BME280;32423;45.398;10.874;2022-11-20T07:07:51;100263.63;;;7.89;57.52
46690;BME280;32423;45.398;10.874;2022-11-20T07:10:35;100261.41;;;7.68;58.75
46690;BME280;32423;45.398;10.874;2022-11-20T07:13:20;100259.34;;;7.65;59.05
46690;BME280;32423;45.398;10.874;2022-11-20T07:16:06;100261.66;;;7.58;59.17
46690;BME280;32423;45.398;10.874;2022-11-20T07:18:51;100268.06;;;7.85;58.94
46690;BME280;32423;45.398;10.874;2022-11-20T07:21:35;100270.53;;;7.95;59.32
46690;BME280;32423;45.398;10.874;2022-11-20T07:24:20;100277.44;;;8.01;58.96
46690;BME280;32423;45.398;10.874;2022-11-20T07:27:04;100278.38;;;8.27;58.63
46690;BME280;32423;45.398;10.874;2022-11-20T07:29:49;100283.69;;;8.32;59.25
46690;BME280;32423;45.398;10.874;2022-11-20T07:32:33;100284.09;;;8.48;59.14
46690;BME280;32423;45.398;10.874;2022-11-20T07:35:17;100288.75;;;8.56;58.77
46690;BME280;32423;45.398;10.874;2022-11-20T07:38:02;100289.69;;;8.51;59.05
46690;BME280;32423;45.398;10.874;2022-11-20T07:40:46;100283.91;;;8.44;59.77
46690;BME280;32423;45.398;10.874;2022-11-20T07:43:30;100285.50;;;8.45;60.44
46690;BME280;32423;45.398;10.874;2022-11-20T07:46:15;100294.97;;;8.56;60.91
46690;BME280;32423;45.398;10.874;2022-11-20T07:48:59;100293.78;;;8.80;60.01
46690;BME280;32423;45.398;10.874;2022-11-20T07:51:44;100291.91;;;8.89;59.77
46690;BME280;32423;45.398;10.874;2022-11-20T07:54:28;100284.69;;;8.76;60.79
46690;BME280;32423;45.398;10.874;2022-11-20T07:57:12;100294.00;;;8.52;62.95
46690;BME280;32423;45.398;10.874;2022-11-20T07:59:57;100294.84;;;8.62;63.03
46690;BME280;32423;45.398;10.874;2022-11-20T08:02:41;100299.25;;;8.88;61.34
46690;BME280;32423;45.398;10.874;2022-11-20T08:05:26;100288.56;;;8.92;62.23
46690;BME280;32423;45.398;10.874;2022-11-20T08:08:11;100294.47;;;8.94;63.11
46690;BME280;32423;45.398;10.874;2022-11-20T08:10:58;100292.91;;;9.10;62.88
46690;BME280;32423;45.398;10.874;2022-11-20T08:14:01;100290.56;;;9.17;64.09
46690;BME280;32423;45.398;10.874;2022-11-20T08:16:58;100304.78;;;9.31;63.40
46690;BME280;32423;45.398;10.874;2022-11-20T08:19:43;100300.16;;;9.40;63.25
46690;BME280;32423;45.398;10.874;2022-11-20T08:22:28;100296.50;;;9.45;63.04
46690;BME280;32423;45.398;10.874;2022-11-20T08:25:13;100295.09;;;9.65;62.31
46690;BME280;32423;45.398;10.874;2022-11-20T08:27:58;100308.50;;;9.87;60.74
46690;BME280;32423;45.398;10.874;2022-11-20T08:30:42;100304.19;;;10.03;59.04
46690;BME280;32423;45.398;10.874;2022-11-20T08:33:27;100299.22;;;10.05;57.80
46690;BME280;32423;45.398;10.874;2022-11-20T08:36:11;100300.19;;;10.09;57.89
46690;BME280;32423;45.398;10.874;2022-11-20T08:38:56;100311.84;;;10.18;57.40
46690;BME280;32423;45.398;10.874;2022-11-20T08:41:40;100307.69;;;10.21;57.54
46690;BME280;32423;45.398;10.874;2022-11-20T08:44:25;100309.91;;;10.27;57.57
46690;BME280;32423;45.398;10.874;2022-11-20T08:47:09;100309.59;;;10.29;57.94
46690;BME280;32423;45.398;10.874;2022-11-20T08:49:53;100315.66;;;10.35;57.81
46690;BME280;32423;45.398;10.874;2022-11-20T08:52:38;100322.53;;;10.41;57.31
46690;BME280;32423;45.398;10.874;2022-11-20T08:55:22;100325.06;;;10.46;56.67
46690;BME280;32423;45.398;10.874;2022-11-20T08:58:07;100330.47;;;10.54;54.54
46690;BME280;32423;45.398;10.874;2022-11-20T09:00:51;100326.78;;;10.59;52.96
46690;BME280;32423;45.398;10.874;2022-11-20T09:03:36;100335.25;;;10.66;53.17
46690;BME280;32423;45.398;10.874;2022-11-20T09:06:20;100336.19;;;10.70;53.04
46690;BME280;32423;45.398;10.874;2022-11-20T09:09:05;100341.78;;;10.73;52.28
46690;BME280;32423;45.398;10.874;2022-11-20T09:11:50;100341.47;;;10.75;52.55
46690;BME280;32423;45.398;10.874;2022-11-20T09:14:35;100345.06;;;10.88;52.22
46690;BME280;32423;45.398;10.874;2022-11-20T09:17:19;100348.91;;;10.95;51.58
46690;BME280;32423;45.398;10.874;2022-11-20T09:20:04;100347.44;;;10.98;52.03
46690;BME280;32423;45.398;10.874;2022-11-20T09:22:49;100348.53;;;11.05;51.55
46690;BME280;32423;45.398;10.874;2022-11-20T09:25:34;100346.75;;;11.09;52.01
46690;BME280;32423;45.398;10.874;2022-11-20T09:28:18;100346.06;;;11.21;52.69
46690;BME280;32423;45.398;10.874;2022-11-20T09:31:07;100344.88;;;11.31;53.51
46690;BME280;32423;45.398;10.874;2022-11-20T09:33:52;100349.47;;;11.39;53.97
46690;BME280;32423;45.398;10.874;2022-11-20T09:36:37;100348.66;;;11.47;54.60
46690;BME280;32423;45.398;10.874;2022-11-20T09:39:22;100353.22;;;11.55;54.99
46690;BME280;32423;45.398;10.874;2022-11-20T09:42:20;100351.44;;;11.59;55.76
46690;BME280;32423;45.398;10.874;2022-11-20T09:45:19;100344.09;;;12.01;55.98
46690;BME280;32423;45.398;10.874;2022-11-20T09:54:19;100339.06;;;11.91;55.63
46690;BME280;32423;45.398;10.874;2022-11-20T09:57:11;100339.44;;;12.02;55.86
46690;BME280;32423;45.398;10.874;2022-11-20T09:59:58;100329.59;;;12.09;55.83
46690;BME280;32423;45.398;10.874;2022-11-20T10:03:00;100335.22;;;12.25;55.68
46690;BME280;32423;45.398;10.874;2022-11-20T10:05:47;100336.28;;;12.32;55.33
46690;BME280;32423;45.398;10.874;2022-11-20T10:08:44;100337.06;;;12.33;55.33
46690;BME280;32423;45.398;10.874;2022-11-20T10:14:19;100332.59;;;12.61;54.21
46690;BME280;32423;45.398;10.874;2022-11-20T10:17:12;100337.19;;;12.69;54.42
46690;BME280;32423;45.398;10.874;2022-11-20T10:20:11;100326.03;;;12.74;54.47
46690;BME280;32423;45.398;10.874;2022-11-20T10:26:06;100322.88;;;12.97;54.20
46690;BME280;32423;45.398;10.874;2022-11-20T10:29:03;100333.81;;;13.09;52.85
46690;BME280;32423;45.398;10.874;2022-11-20T10:31:54;100330.28;;;13.08;54.08
46690;BME280;32423;45.398;10.874;2022-11-20T10:34:50;100336.78;;;13.16;53.60
46690;BME280;32423;45.398;10.874;2022-11-20T10:37:37;100337.69;;;13.20;53.55
46690;BME280;32423;45.398;10.874;2022-11-20T10:40:35;100330.19;;;13.29;53.14
46690;BME280;32423;45.398;10.874;2022-11-20T10:43:32;100323.47;;;13.26;53.41
46690;BME280;32423;45.398;10.874;2022-11-20T10:46:20;100322.56;;;13.35;53.50
46690;BME280;32423;45.398;10.874;2022-11-20T10:49:11;100325.25;;;13.47;53.05
46690;BME280;32423;45.398;10.874;2022-11-20T10:52:05;100326.94;;;13.51;53.11
46690;BME280;32423;45.398;10.874;2022-11-20T11:00:35;100309.88;;;13.54;52.26
46690;BME280;32423;45.398;10.874;2022-11-20T11:03:22;100310.31;;;13.56;52.29
46690;BME280;32423;45.398;10.874;2022-11-20T11:06:12;100301.22;;;13.64;52.27
46690;BME280;32423;45.398;10.874;2022-11-20T11:09:01;100301.56;;;13.63;52.13
46690;BME280;32423;45.398;10.874;2022-11-20T11:11:47;100297.69;;;13.64;51.84
46690;BME280;32423;45.398;10.874;2022-11-20T11:14:31;100289.94;;;13.66;52.25
46690;BME280;32423;45.398;10.874;2022-11-20T11:17:29;100296.31;;;13.70;52.49
46690;BME280;32423;45.398;10.874;2022-11-20T11:20:17;100293.34;;;13.75;52.44
46690;BME280;32423;45.398;10.874;2022-11-20T11:23:02;100288.84;;;13.83;52.27
46690;BME280;32423;45.398;10.874;2022-11-20T11:25:56;100289.75;;;13.87;52.32
46690;BME280;32423;45.398;10.874;2022-11-20T11:28:41;100284.41;;;13.90;52.22
46690;BME280;32423;45.398;10.874;2022-11-20T11:31:35;100288.88;;;14.10;52.64
46690;BME280;32423;45.398;10.874;2022-11-20T11:34:19;100284.31;;;14.30;54.84
46690;BME280;32423;45.398;10.874;2022-11-20T11:37:04;100284.16;;;14.39;55.12
46690;BME280;32423;45.398;10.874;2022-11-20T11:39:54;100283.22;;;14.47;55.16
46690;BME280;32423;45.398;10.874;2022-11-20T11:42:43;100279.97;;;14.57;55.04
46690;BME280;32423;45.398;10.874;2022-11-20T11:45:28;100274.56;;;14.61;55.09
46690;BME280;32423;45.398;10.874;2022-11-20T11:48:13;100281.19;;;14.75;54.01
46690;BME280;32423;45.398;10.874;2022-11-20T11:50:58;100276.53;;;14.76;54.75
46690;BME280;32423;45.398;10.874;2022-11-20T11:53:42;100278.66;;;14.82;54.01
46690;BME280;32423;45.398;10.874;2022-11-20T11:56:27;100269.53;;;14.78;54.08
46690;BME280;32423;45.398;10.874;2022-11-20T11:59:15;100269.72;;;14.85;53.95
46690;BME280;32423;45.398;10.874;2022-11-20T12:02:05;100266.97;;;14.85;54.44
46690;BME280;32423;45.398;10.874;2022-11-20T12:05:02;100265.84;;;14.86;53.67
46690;BME280;32423;45.398;10.874;2022-11-20T12:07:55;100270.59;;;14.89;53.79
46690;BME280;32423;45.398;10.874;2022-11-20T12:10:50;100270.69;;;14.93;53.15
46690;BME280;32423;45.398;10.874;2022-11-20T12:16:22;100258.50;;;14.90;51.77
46690;BME280;32423;45.398;10.874;2022-11-20T12:19:09;100255.47;;;14.95;51.46
46690;BME280;32423;45.398;10.874;2022-11-20T12:21:58;100248.34;;;14.91;51.49
46690;BME280;32423;45.398;10.874;2022-11-20T12:27:40;100239.56;;;15.01;50.95
46690;BME280;32423;45.398;10.874;2022-11-20T12:30:28;100248.25;;;15.03;50.42
46690;BME280;32423;45.398;10.874;2022-11-20T12:36:38;100258.53;;;15.10;51.04
46690;BME280;32423;45.398;10.874;2022-11-20T12:39:34;100257.13;;;15.16;50.98
46690;BME280;32423;45.398;10.874;2022-11-20T12:54:25;100248.75;;;18.08;41.24
46690;BME280;32423;45.398;10.874;2022-11-20T13:03:09;100242.03;;;18.87;38.14
46690;BME280;32423;45.398;10.874;2022-11-20T13:06:10;100248.44;;;19.05;38.28
46690;BME280;32423;45.398;10.874;2022-11-20T13:08:56;100243.28;;;18.96;38.44
46690;BME280;32423;45.398;10.874;2022-11-20T13:11:42;100246.13;;;19.07;38.17
46690;BME280;32423;45.398;10.874;2022-11-20T13:20:17;100239.00;;;19.02;37.85
46690;BME280;32423;45.398;10.874;2022-11-20T13:23:02;100232.25;;;18.93;38.48
46690;BME280;32423;45.398;10.874;2022-11-20T13:25:47;100230.56;;;18.81;38.37
46690;BME280;32423;45.398;10.874;2022-11-20T13:28:33;100231.72;;;18.73;37.86
46690;BME280;32423;45.398;10.874;2022-11-20T13:31:34;100218.03;;;18.84;38.10
46690;BME280;32423;45.398;10.874;2022-11-20T13:34:24;100224.44;;;19.02;38.15
46690;BME280;32423;45.398;10.874;2022-11-20T13:37:23;100219.56;;;18.85;38.03
46690;BME280;32423;45.398;10.874;2022-11-20T13:43:04;100220.78;;;18.84;37.65
46690;BME280;32423;45.398;10.874;2022-11-20T13:46:00;100213.97;;;18.70;38.10
46690;BME280;32423;45.398;10.874;2022-11-20T13:48:45;100211.56;;;18.62;38.37
46690;BME280;32423;45.398;10.874;2022-11-20T13:51:46;100217.78;;;18.55;38.24
46690;BME280;32423;45.398;10.874;2022-11-20T14:00:13;100213.75;;;18.49;39.05
46690;BME280;32423;45.398;10.874;2022-11-20T14:05:58;100221.84;;;18.28;39.90
46690;BME280;32423;45.398;10.874;2022-11-20T14:08:47;100230.13;;;18.28;40.17
46690;BME280;32423;45.398;10.874;2022-11-20T14:11:32;100229.56;;;18.12;40.41
46690;BME280;32423;45.398;10.874;2022-11-20T14:14:24;100226.47;;;17.83;40.64
46690;BME280;32423;45.398;10.874;2022-11-20T14:17:20;100226.91;;;17.85;41.27
46690;BME280;32423;45.398;10.874;2022-11-20T14:20:12;100218.09;;;17.73;41.90
46690;BME280;32423;45.398;10.874;2022-11-20T14:22:59;100223.38;;;17.55;42.03
46690;BME280;32423;45.398;10.874;2022-11-20T14:25:43;100220.75;;;17.62;42.40
46690;BME280;32423;45.398;10.874;2022-11-20T14:28:29;100208.63;;;17.37;42.40
46690;BME280;32423;45.398;10.874;2022-11-20T14:31:18;100210.75;;;17.21;43.00
46690;BME280;32423;45.398;10.874;2022-11-20T14:34:05;100213.63;;;17.01;43.10
46690;BME280;32423;45.398;10.874;2022-11-20T14:36:55;100216.91;;;16.84;43.68
46690;BME280;32423;45.398;10.874;2022-11-20T14:39:42;100210.19;;;16.82;43.68
46690;BME280;32423;45.398;10.874;2022-11-20T14:42:27;100209.66;;;16.73;44.28
46690;BME280;32423;45.398;10.874;2022-11-20T14:45:12;100212.97;;;16.59;44.69
46690;BME280;32423;45.398;10.874;2022-11-20T14:47:57;100213.56;;;16.49;45.13
46690;BME280;32423;45.398;10.874;2022-11-20T14:50:42;100224.03;;;16.43;45.24
46690;BME280;32423;45.398;10.874;2022-11-20T14:53:27;100225.16;;;16.39;45.61
46690;BME280;32423;45.398;10.874;2022-11-20T14:56:11;100227.66;;;16.24;45.42
46690;BME280;32423;45.398;10.874;2022-11-20T14:58:56;100227.00;;;16.12;46.01
46690;BME280;32423;45.398;10.874;2022-11-20T15:01:42;100211.69;;;15.88;46.71
46690;BME280;32423;45.398;10.874;2022-11-20T15:04:48;100209.63;;;15.62;47.61
46690;BME280;32423;45.398;10.874;2022-11-20T15:07:34;100217.13;;;15.30;48.33
46690;BME280;32423;45.398;10.874;2022-11-20T15:10:26;100217.41;;;15.06;49.24
46690;BME280;32423;45.398;10.874;2022-11-20T15:13:11;100211.50;;;14.88;49.89
46690;BME280;32423;45.398;10.874;2022-11-20T15:15:57;100211.63;;;14.76;50.31
46690;BME280;32423;45.398;10.874;2022-11-20T15:18:43;100217.13;;;14.61;50.66
46690;BME280;32423;45.398;10.874;2022-11-20T15:21:27;100221.19;;;14.51;51.11
46690;BME280;32423;45.398;10.874;2022-11-20T15:24:11;100223.38;;;14.45;50.94
46690;BME280;32423;45.398;10.874;2022-11-20T15:26:56;100228.47;;;14.31;51.27
46690;BME280;32423;45.398;10.874;2022-11-20T15:29:41;100224.50;;;13.85;52.35
46690;BME280;32423;45.398;10.874;2022-11-20T15:32:25;100224.56;;;13.45;54.65